Time;durP1;ratioP1;P1;durP2;ratioP2;P2;SDS_P1;SDS_P2;PMS_P1;PMS_P2;Temp;Humidity;BMP_temperature;BMP_pressure;BME280_temperature;BME280_humidity;BME280_pressure;Samples;Min_cycle;Max_cycle;Signal;HPM_P1;HPM_P2
2023/03/28 00:01:47;;;;;;;0.40;0.40;;;5.50;99.90;;;;;;5013877;28;20037;-49
2023/03/28 00:04:13;;;;;;;0.30;0.30;;;5.50;99.90;;;;;;5013685;28;20030;-50
2023/03/28 00:06:40;;;;;;;0.32;0.32;;;5.50;99.90;;;;;;5013641;28;20454;-48
2023/03/28 00:09:06;;;;;;;0.20;0.20;;;5.50;99.90;;;;;;5013583;28;20048;-50
2023/03/28 00:11:32;;;;;;;0.20;0.20;;;5.50;99.90;;;;;;5013628;28;20053;-50
2023/03/28 00:14:00;;;;;;;0.20;0.20;;;5.50;99.90;;;;;;4995365;28;20034;-49
2023/03/28 00:16:30;;;;;;;0.30;0.30;;;5.50;99.90;;;;;;5013709;28;20105;-50
2023/03/28 00:18:59;;;;;;;0.30;0.30;;;5.50;99.90;;;;;;5013391;28;20045;-49
2023/03/28 00:21:36;;;;;;;0.40;0.40;;;5.50;99.90;;;;;;5013383;28;20371;-48
2023/03/28 00:24:04;;;;;;;0.20;0.20;;;5.50;99.90;;;;;;5013161;28;20501;-50
2023/03/28 00:26:34;;;;;;;0.30;0.30;;;5.50;99.90;;;;;;5013837;28;20030;-51
2023/03/28 00:29:01;;;;;;;0.20;0.20;;;5.50;99.90;;;;;;5013376;28;20042;-50
2023/03/28 00:31:28;;;;;;;0.30;0.30;;;5.50;99.90;;;;;;5013288;28;20473;-50
2023/03/28 00:33:55;;;;;;;0.52;0.47;;;5.50;99.90;;;;;;5013426;28;20109;-51
2023/03/28 00:36:25;;;;;;;0.30;0.30;;;5.40;99.90;;;;;;5015974;28;20026;-49
2023/03/28 00:38:52;;;;;;;0.20;0.20;;;5.40;99.90;;;;;;5017362;28;20440;-48
2023/03/28 00:41:20;;;;;;;0.20;0.20;;;5.30;99.90;;;;;;5017326;28;20065;-50
2023/03/28 00:43:49;;;;;;;0.20;0.20;;;5.20;99.90;;;;;;5017505;28;20034;-51
2023/03/28 00:46:18;;;;;;;0.30;0.30;;;5.20;99.90;;;;;;5017274;28;20030;-50
2023/03/28 00:49:12;;;;;;;0.30;0.30;;;5.10;99.90;;;;;;5017192;28;20076;-51
2023/03/28 00:51:43;;;;;;;0.20;0.20;;;5.10;99.90;;;;;;4998308;28;20034;-49
2023/03/28 00:54:11;;;;;;;0.22;0.22;;;;;;;;;;5015079;28;20034;-49
2023/03/28 00:56:40;;;;;;;0.63;0.63;;;5.10;99.90;;;;;;5014793;28;20080;-49
2023/03/28 00:59:10;;;;;;;0.20;0.20;;;4.90;99.90;;;;;;5014459;28;20128;-48
2023/03/28 01:01:36;;;;;;;0.20;0.20;;;4.90;99.90;;;;;;5014801;28;20034;-49
2023/03/28 01:04:02;;;;;;;0.40;0.40;;;4.90;99.90;;;;;;5014795;28;20037;-49
2023/03/28 01:06:31;;;;;;;0.15;0.15;;;4.80;99.90;;;;;;5014650;28;20026;-48
2023/03/28 01:09:01;;;;;;;0.30;0.30;;;4.80;99.90;;;;;;5014618;28;20053;-48
2023/03/28 01:11:27;;;;;;;0.20;0.20;;;4.70;99.90;;;;;;5014518;28;20045;-48
2023/03/28 01:13:54;;;;;;;0.30;0.30;;;4.70;99.90;;;;;;5014474;28;20704;-48
2023/03/28 01:16:21;;;;;;;0.20;0.20;;;4.70;99.90;;;;;;5014675;28;20061;-48
2023/03/28 01:18:51;;;;;;;0.20;0.20;;;4.60;99.90;;;;;;5014079;28;20029;-49
2023/03/28 01:21:53;;;;;;;0.30;0.30;;;4.60;99.90;;;;;;5014443;28;20046;-49
2023/03/28 01:24:46;;;;;;;0.20;0.20;;;4.50;99.90;;;;;;5014309;28;20146;-50
2023/03/28 01:27:24;;;;;;;0.17;0.17;;;4.50;99.90;;;;;;5014242;28;20030;-48
2023/03/28 01:29:59;;;;;;;0.22;0.22;;;;;;;;;;4998094;28;20406;-48
2023/03/28 01:32:31;;;;;;;0.40;0.40;;;4.40;99.90;;;;;;5016603;28;20482;-48
2023/03/28 01:35:18;;;;;;;0.20;0.20;;;4.30;99.90;;;;;;5016256;28;20034;-48
2023/03/28 01:38:05;;;;;;;0.20;0.20;;;4.30;99.90;;;;;;5016055;28;20080;-48
2023/03/28 01:40:44;;;;;;;0.20;0.20;;;4.40;99.90;;;;;;5016508;28;20402;-48
2023/03/28 01:43:44;;;;;;;0.30;0.30;;;4.30;99.90;;;;;;5016346;28;20025;-49
2023/03/28 01:46:25;;;;;;;0.20;0.20;;;4.30;99.90;;;;;;5015669;28;20026;-49
2023/03/28 01:49:03;;;;;;;0.30;0.30;;;4.20;99.90;;;;;;5015874;28;20466;-49
2023/03/28 01:51:56;;;;;;;0.98;0.98;;;4.30;99.90;;;;;;5015902;28;20497;-48
2023/03/28 01:54:42;;;;;;;0.20;0.20;;;;;;;;;;5016109;28;20029;-49
2023/03/28 01:57:28;;;;;;;0.40;0.40;;;4.20;99.90;;;;;;5015682;28;20478;-49
2023/03/28 02:00:22;;;;;;;0.80;0.40;;;4.10;99.90;;;;;;5015542;28;20033;-49
2023/03/28 02:02:53;;;;;;;0.30;0.30;;;;;;;;;;5015609;28;20477;-49
2023/03/28 02:05:20;;;;;;;0.45;0.45;;;;;;;;;;5015739;28;20037;-49
2023/03/28 02:07:48;;;;;;;0.52;0.50;;;;;;;;;;5015558;28;20034;-49
2023/03/28 02:10:15;;;;;;;0.77;0.77;;;;;;;;;;5016075;28;20034;-49
2023/03/28 02:12:56;;;;;;;0.20;0.20;;;;;;;;;;5015850;28;20022;-50
2023/03/28 02:15:23;;;;;;;0.40;0.40;;;;;;;;;;5015381;28;20026;-49
2023/03/28 02:17:52;;;;;;;0.30;0.30;;;;;;;;;;5015522;28;20029;-49
2023/03/28 02:20:23;;;;;;;0.30;0.30;;;4.10;99.90;;;;;;5015604;28;20037;-49
2023/03/28 02:23:14;;;;;;;0.20;0.20;;;4.20;99.90;;;;;;5015356;28;20102;-49
2023/03/28 02:25:41;;;;;;;0.30;0.30;;;;;;;;;;5016490;28;20034;-50
2023/03/28 02:28:08;;;;;;;0.20;0.20;;;;;;;;;;5032826;28;20678;-50
2023/03/28 02:30:35;;;;;;;0.28;0.28;;;;;;;;;;5032996;28;20160;-50
2023/03/28 02:33:02;;;;;;;0.30;0.30;;;;;;;;;;5032845;28;20091;-50
2023/03/28 02:35:50;;;;;;;0.47;0.38;;;;;;;;;;5032900;28;20039;-50
2023/03/28 02:38:21;;;;;;;0.30;0.30;;;;;;;;;;5032772;28;20037;-50
2023/03/28 02:40:56;;;;;;;0.40;0.40;;;;;;;;;;5023114;28;20478;-50
2023/03/28 02:43:22;;;;;;;0.20;0.20;;;;;;;;;;4993451;28;20041;-50
2023/03/28 02:46:07;;;;;;;0.30;0.30;;;;;;;;;;4993274;28;20073;-50
2023/03/28 02:48:33;;;;;;;0.30;0.30;;;;;;;;;;4993122;28;20113;-50
2023/03/28 02:50:59;;;;;;;0.35;0.35;;;;;;;;;;4998250;28;20096;-50
2023/03/28 02:53:34;;;;;;;0.30;0.30;;;4.10;99.90;;;;;;5012755;28;20402;-50
2023/03/28 02:56:22;;;;;;;0.20;0.20;;;4.10;99.90;;;;;;5012678;28;20500;-50
2023/03/28 02:58:54;;;;;;;0.20;0.20;;;3.90;99.90;;;;;;5011693;28;20068;-50
2023/03/28 03:01:24;;;;;;;0.50;0.50;;;3.90;99.90;;;;;;5012660;28;20485;-50
2023/03/28 03:03:50;;;;;;;0.30;0.30;;;4.00;99.90;;;;;;5014565;28;20033;-50
2023/03/28 03:06:16;;;;;;;0.30;0.30;;;4.00;99.90;;;;;;5014531;28;20033;-50
2023/03/28 03:08:43;;;;;;;0.38;0.38;;;3.90;99.90;;;;;;4996475;28;20064;-50
2023/03/28 03:11:09;;;;;;;0.30;0.30;;;3.80;99.90;;;;;;5014554;28;20029;-50
2023/03/28 03:13:34;;;;;;;0.30;0.30;;;3.90;99.90;;;;;;5014334;28;20034;-50
2023/03/28 03:16:01;;;;;;;0.32;0.32;;;3.90;99.90;;;;;;5013072;28;20025;-50
2023/03/28 03:18:26;;;;;;;0.35;0.35;;;3.90;99.90;;;;;;4995153;28;20034;-50
2023/03/28 03:20:52;;;;;;;0.22;0.22;;;3.80;99.90;;;;;;5009299;28;20041;-50
2023/03/28 03:23:18;;;;;;;0.30;0.30;;;3.80;99.90;;;;;;5000485;28;20057;-50
2023/03/28 03:25:44;;;;;;;0.20;0.20;;;3.90;99.90;;;;;;5014468;28;20022;-50
2023/03/28 03:28:10;;;;;;;0.52;0.52;;;3.90;99.90;;;;;;5014078;28;20030;-50
2023/03/28 03:30:36;;;;;;;0.45;0.45;;;3.90;99.90;;;;;;4996041;28;20038;-50
2023/03/28 03:33:04;;;;;;;0.30;0.30;;;3.90;99.90;;;;;;5014164;28;20030;-50
2023/03/28 03:35:33;;;;;;;0.30;0.30;;;3.90;99.90;;;;;;5012131;28;20129;-50
2023/03/28 03:37:59;;;;;;;0.47;0.47;;;4.00;99.90;;;;;;5013993;28;20034;-50
2023/03/28 03:40:25;;;;;;;0.20;0.20;;;3.90;99.90;;;;;;5014111;28;20030;-50
2023/03/28 03:42:51;;;;;;;0.30;0.30;;;4.00;99.90;;;;;;5014383;28;20101;-50
2023/03/28 03:45:17;;;;;;;0.30;0.30;;;3.90;99.90;;;;;;5013804;28;20517;-50
2023/03/28 03:47:43;;;;;;;0.30;0.30;;;4.00;99.90;;;;;;5012297;28;20393;-51
2023/03/28 03:50:09;;;;;;;0.22;0.22;;;4.00;99.90;;;;;;5014154;28;20465;-50
2023/03/28 03:52:35;;;;;;;0.47;0.47;;;4.00;99.90;;;;;;5013811;28;20026;-50
2023/03/28 03:55:01;;;;;;;0.30;0.30;;;4.00;99.90;;;;;;5045384;28;20045;-50
2023/03/28 03:57:27;;;;;;;0.47;0.47;;;4.00;99.90;;;;;;5013929;28;20060;-50
2023/03/28 03:59:53;;;;;;;0.50;0.50;;;3.90;99.90;;;;;;5028442;28;20038;-50
2023/03/28 04:02:19;;;;;;;0.30;0.30;;;4.00;99.90;;;;;;5013805;28;20041;-50
2023/03/28 04:04:46;;;;;;;0.45;0.43;;;4.00;99.90;;;;;;5011847;28;20038;-50
2023/03/28 04:07:12;;;;;;;0.30;0.30;;;4.00;99.90;;;;;;5013633;28;20379;-50
2023/03/28 04:09:38;;;;;;;0.28;0.28;;;4.00;99.90;;;;;;5013502;28;20456;-50
2023/03/28 04:12:06;;;;;;;0.38;0.38;;;3.90;99.90;;;;;;5013568;28;20057;-50
2023/03/28 04:14:31;;;;;;;0.85;0.45;;;3.90;99.90;;;;;;5014046;28;20080;-50
2023/03/28 04:16:57;;;;;;;0.35;0.35;;;3.90;99.90;;;;;;5013785;28;20030;-50
2023/03/28 04:19:23;;;;;;;0.30;0.30;;;3.90;99.90;;;;;;5011624;28;20034;-50
2023/03/28 04:21:51;;;;;;;0.38;0.38;;;3.80;99.90;;;;;;5013499;28;20502;-50
2023/03/28 04:24:19;;;;;;;0.50;0.50;;;3.80;99.90;;;;;;5013709;28;20050;-50
2023/03/28 04:26:48;;;;;;;0.35;0.35;;;3.80;99.90;;;;;;5013289;28;20469;-50
2023/03/28 04:29:16;;;;;;;0.43;0.43;;;3.90;99.90;;;;;;5011557;28;20060;-50
2023/03/28 04:31:48;;;;;;;0.35;0.35;;;3.80;99.90;;;;;;5013264;28;20532;-50
2023/03/28 04:34:15;;;;;;;0.28;0.28;;;3.80;99.90;;;;;;5007111;28;20406;-50
2023/03/28 04:36:42;;;;;;;0.30;0.30;;;3.70;99.90;;;;;;4993576;28;20029;-50
2023/03/28 04:39:08;;;;;;;0.40;0.40;;;3.70;99.90;;;;;;4993944;28;20038;-50
2023/03/28 04:41:34;;;;;;;0.35;0.35;;;3.60;99.90;;;;;;4997548;28;20032;-50
2023/03/28 04:44:00;;;;;;;0.40;0.40;;;;;;;;;;5013436;28;20030;-50
2023/03/28 04:46:30;;;;;;;0.30;0.30;;;;;;;;;;5012167;28;20172;-50
2023/03/28 04:48:56;;;;;;;0.55;0.55;;;;;;;;;;5035138;28;20045;-50
2023/03/28 04:51:21;;;;;;;0.40;0.40;;;3.80;99.90;;;;;;5002825;28;20173;-50
2023/03/28 04:53:47;;;;;;;0.30;0.30;;;;;;;;;;5001840;28;20109;-50
2023/03/28 04:56:13;;;;;;;0.30;0.30;;;;;;;;;;5003812;28;20022;-50
2023/03/28 04:58:40;;;;;;;0.85;0.63;;;3.60;99.90;;;;;;4993538;28;20019;-50
2023/03/28 05:01:09;;;;;;;0.75;0.73;;;3.90;99.90;;;;;;4993647;28;20047;-50
2023/03/28 05:03:36;;;;;;;0.43;0.43;;;3.80;99.90;;;;;;4993448;28;20084;-51
2023/03/28 05:06:02;;;;;;;0.40;0.40;;;3.70;99.90;;;;;;5000013;28;20041;-50
2023/03/28 05:08:30;;;;;;;0.47;0.47;;;3.70;99.90;;;;;;4998012;28;20097;-50
2023/03/28 05:10:56;;;;;;;0.93;0.93;;;3.80;99.90;;;;;;5007892;28;20053;-50
2023/03/28 05:13:22;;;;;;;0.30;0.30;;;3.70;99.90;;;;;;5010721;28;20042;-50
2023/03/28 05:15:47;;;;;;;0.28;0.28;;;3.60;99.90;;;;;;5021885;28;20125;-50
2023/03/28 05:18:14;;;;;;;0.38;0.38;;;3.80;99.90;;;;;;5019926;28;20022;-54
2023/03/28 05:20:40;;;;;;;0.30;0.30;;;3.80;99.90;;;;;;5025436;28;20029;-49
2023/03/28 05:23:06;;;;;;;0.50;0.50;;;3.90;99.90;;;;;;5025228;28;20074;-49
2023/03/28 05:25:32;;;;;;;0.30;0.30;;;3.90;99.90;;;;;;5016684;28;20058;-49
2023/03/28 05:27:58;;;;;;;0.25;0.25;;;4.00;99.90;;;;;;5030146;28;20026;-50
2023/03/28 05:30:24;;;;;;;0.38;0.38;;;4.10;99.90;;;;;;5028101;28;20180;-49
2023/03/28 05:32:49;;;;;;;0.50;0.50;;;3.90;99.90;;;;;;5041134;28;20037;-50
2023/03/28 05:35:16;;;;;;;0.30;0.30;;;4.00;99.90;;;;;;5020063;28;20026;-50
2023/03/28 05:37:42;;;;;;;0.30;0.30;;;4.00;99.90;;;;;;5025226;28;20038;-49
2023/03/28 05:40:09;;;;;;;0.30;0.30;;;4.10;99.90;;;;;;5024965;28;20485;-49
2023/03/28 05:42:37;;;;;;;0.30;0.30;;;4.00;99.90;;;;;;5035769;28;20040;-49
2023/03/28 05:45:07;;;;;;;0.43;0.43;;;4.10;99.90;;;;;;5035891;28;20022;-50
2023/03/28 05:47:33;;;;;;;0.28;0.28;;;4.30;99.90;;;;;;5034094;28;20061;-50
2023/03/28 05:49:59;;;;;;;0.30;0.30;;;4.40;99.90;;;;;;5035641;28;20041;-50
2023/03/28 05:52:25;;;;;;;0.80;0.50;;;4.40;99.90;;;;;;5050737;28;20037;-49
2023/03/28 05:54:51;;;;;;;0.30;0.30;;;4.30;99.90;;;;;;5035542;28;20393;-50
2023/03/28 05:57:18;;;;;;;0.45;0.45;;;4.40;99.90;;;;;;5035640;28;20021;-49
2023/03/28 05:59:43;;;;;;;0.30;0.30;;;4.40;99.90;;;;;;5035774;28;20021;-49
2023/03/28 06:02:15;;;;;;;0.70;0.70;;;4.40;99.90;;;;;;5035895;28;20048;-49
2023/03/28 06:04:42;;;;;;;0.30;0.30;;;4.60;99.90;;;;;;5035494;28;20508;-50
2023/03/28 06:07:08;;;;;;;0.45;0.45;;;4.60;99.90;;;;;;5035490;28;20030;-50
2023/03/28 06:09:34;;;;;;;0.32;0.32;;;4.60;99.90;;;;;;5035536;28;20041;-51
2023/03/28 06:12:01;;;;;;;0.40;0.40;;;4.70;99.90;;;;;;5035398;28;20439;-51
2023/03/28 06:14:28;;;;;;;0.43;0.43;;;4.80;99.90;;;;;;5035396;28;20036;-49
2023/03/28 06:16:54;;;;;;;0.50;0.50;;;4.90;99.90;;;;;;5035312;28;20022;-51
2023/03/28 06:19:20;;;;;;;0.40;0.40;;;4.90;99.90;;;;;;5035589;28;20033;-49
2023/03/28 06:21:45;;;;;;;0.40;0.40;;;5.00;99.90;;;;;;5035121;28;20052;-50
2023/03/28 06:24:11;;;;;;;0.35;0.35;;;5.00;99.90;;;;;;5033305;28;20057;-49
2023/03/28 06:26:37;;;;;;;0.32;0.32;;;5.00;99.90;;;;;;5013131;28;20493;-49
2023/03/28 06:29:04;;;;;;;0.20;0.20;;;5.30;99.90;;;;;;5013103;28;20069;-51
2023/03/28 06:31:31;;;;;;;0.40;0.40;;;5.20;99.90;;;;;;5012950;28;20048;-48
2023/03/28 06:33:57;;;;;;;0.30;0.30;;;5.10;99.90;;;;;;5012953;28;20505;-49
2023/03/28 06:36:22;;;;;;;0.32;0.32;;;5.20;99.90;;;;;;5013098;28;20030;-50
2023/03/28 06:38:49;;;;;;;0.30;0.30;;;5.30;99.90;;;;;;5012886;28;20033;-50
2023/03/28 06:41:15;;;;;;;0.30;0.30;;;5.40;99.90;;;;;;5012938;28;20042;-49
2023/03/28 06:43:41;;;;;;;0.30;0.30;;;5.70;99.90;;;;;;5012968;28;20029;-49
2023/03/28 06:46:08;;;;;;;0.40;0.40;;;5.80;99.90;;;;;;5012760;28;20065;-49
2023/03/28 06:48:35;;;;;;;0.40;0.40;;;6.20;99.90;;;;;;5012721;28;20125;-48
2023/03/28 06:51:01;;;;;;;0.43;0.43;;;6.50;99.90;;;;;;5012653;28;20478;-49
2023/03/28 06:53:27;;;;;;;0.40;0.40;;;6.70;99.90;;;;;;5012722;28;20025;-49
2023/03/28 06:55:53;;;;;;;0.30;0.30;;;6.90;99.90;;;;;;5012643;28;20139;-49
2023/03/28 06:58:20;;;;;;;0.70;0.70;;;;;;;;;;5029917;28;20448;-50
2023/03/28 07:00:46;;;;;;;0.77;0.77;;;;;;;;;;5034371;28;20492;-49
2023/03/28 07:03:13;;;;;;;0.50;0.50;;;;;;;;;;5049197;28;20037;-50
2023/03/28 07:05:39;;;;;;;0.47;0.47;;;;;;;;;;5034569;28;20045;-49
2023/03/28 07:08:07;;;;;;;0.30;0.30;;;;;;;;;;5049207;28;20393;-49
2023/03/28 07:10:33;;;;;;;0.38;0.38;;;;;;;;;;5034399;28;20036;-49
2023/03/28 07:12:59;;;;;;;0.50;0.50;;;;;;;;;;5034436;28;20080;-49
2023/03/28 07:15:25;;;;;;;0.57;0.47;;;;;;;;;;5034038;28;20504;-50
2023/03/28 07:17:52;;;;;;;0.82;0.82;;;;;;;;;;5032641;28;20077;-49
2023/03/28 07:20:19;;;;;;;0.30;0.30;;;;;;;;;;5034011;28;20060;-50
2023/03/28 07:22:45;;;;;;;1.58;1.13;;;;;;;;;;5033887;28;20179;-49
2023/03/28 07:25:12;;;;;;;0.40;0.40;;;;;;;;;;5033728;28;20030;-50
2023/03/28 07:27:38;;;;;;;0.32;0.32;;;;;;;;;;5034012;28;20029;-49
2023/03/28 07:30:05;;;;;;;0.47;0.47;;;;;;;;;;5033984;28;20037;-49
2023/03/28 07:32:34;;;;;;;0.30;0.30;;;;;;;;;;5032028;28;20050;-49
2023/03/28 07:35:00;;;;;;;0.20;0.20;;;;;;;;;;5033722;28;20380;-50
2023/03/28 07:37:26;;;;;;;0.47;0.47;;;;;;;;;;5033789;28;20036;-49
2023/03/28 07:39:53;;;;;;;0.40;0.40;;;;;;;;;;5019677;28;20824;-46
2023/03/28 07:42:19;;;;;;;0.75;0.75;;;;;;;;;;5036659;28;20074;-50
2023/03/28 07:44:45;;;;;;;0.40;0.40;;;;;;;;;;4991690;28;20486;-49
2023/03/28 07:47:11;;;;;;;1.55;0.70;;;;;;;;;;5005566;28;20036;-48
2023/03/28 07:49:38;;;;;;;0.63;0.63;;;;;;;;;;5005482;28;20042;-49
2023/03/28 07:52:04;;;;;;;1.13;0.75;;;;;;;;;;5002372;28;20049;-49
2023/03/28 07:54:32;;;;;;;0.22;0.22;;;;;;;;;;5004148;28;20034;-50
2023/03/28 07:56:58;;;;;;;0.30;0.30;;;;;;;;;;5002916;28;20034;-50
2023/03/28 07:59:24;;;;;;;0.50;0.50;;;7.10;99.90;;;;;;5004005;28;20386;-50
2023/03/28 08:01:51;;;;;;;0.22;0.22;;;7.10;99.90;;;;;;5002131;28;20113;-51
2023/03/28 08:04:17;;;;;;;0.40;0.40;;;;;;;;;;5003385;28;20044;-50
2023/03/28 08:06:44;;;;;;;0.30;0.30;;;;;;;;;;5004261;28;20080;-49
2023/03/28 08:09:14;;;;;;;0.45;0.45;;;;;;;;;;5002078;28;20126;-50
2023/03/28 08:11:41;;;;;;;0.93;0.93;;;;;;;;;;5033276;28;20041;-51
2023/03/28 08:14:08;;;;;;;0.50;0.50;;;;;;;;;;4991841;28;20038;-50
2023/03/28 08:16:34;;;;;;;0.20;0.20;;;;;;;;;;5003620;28;20018;-49
2023/03/28 08:19:00;;;;;;;0.30;0.30;;;;;;;;;;4984986;28;20037;-49
2023/03/28 08:21:29;;;;;;;0.50;0.50;;;;;;;;;;5002192;28;20029;-49
2023/03/28 08:23:56;;;;;;;0.30;0.30;;;;;;;;;;5003338;28;20054;-51
2023/03/28 08:26:22;;;;;;;0.30;0.30;;;;;;;;;;4994116;28;20427;-51
2023/03/28 08:28:50;;;;;;;0.20;0.20;;;;;;;;;;5003653;28;20045;-51
2023/03/28 08:31:17;;;;;;;0.43;0.43;;;;;;;;;;5011919;28;20036;-53
2023/03/28 08:33:44;;;;;;;0.20;0.20;;;;;;;;;;5013219;28;20037;-53
2023/03/28 08:36:13;;;;;;;0.30;0.30;;;7.40;99.90;;;;;;5006306;28;20034;-56
2023/03/28 08:38:43;;;;;;;0.30;0.30;;;7.40;99.90;;;;;;5016040;28;20038;-55
2023/03/28 08:41:33;;;;;;;0.50;0.50;;;;;;;;;;4998717;28;20032;-52
2023/03/28 08:44:17;;;;;;;0.30;0.30;;;8.00;99.90;;;;;;5008105;28;20038;-54
2023/03/28 08:46:45;;;;;;;0.35;0.35;;;8.00;99.90;;;;;;5010939;28;20441;-54
2023/03/28 08:49:14;;;;;;;0.47;0.47;;;;;;;;;;4987747;28;20053;-54
2023/03/28 08:51:45;;;;;;;0.50;0.50;;;8.00;99.90;;;;;;4991334;28;20034;-55
2023/03/28 08:54:37;;;;;;;0.50;0.50;;;7.80;99.90;;;;;;4995321;28;20033;-52
2023/03/28 08:57:06;;;;;;;0.75;0.75;;;7.40;99.90;;;;;;5012506;28;20034;-57
2023/03/28 08:59:47;;;;;;;0.50;0.50;;;7.80;99.90;;;;;;5014833;28;20033;-54
2023/03/28 09:02:20;;;;;;;0.50;0.50;;;8.30;99.90;;;;;;4997485;28;20050;-56
2023/03/28 09:04:46;;;;;;;0.30;0.30;;;8.20;99.90;;;;;;5014634;28;20033;-52
2023/03/28 09:07:15;;;;;;;0.50;0.50;;;8.30;99.90;;;;;;4995830;28;20079;-53
2023/03/28 09:10:10;;;;;;;4.22;2.78;;;9.00;99.90;;;;;;5010821;28;20571;-52
2023/03/28 09:13:00;;;;;;;2.22;2.05;;;8.40;99.90;;;;;;4937005;29;20047;-53
2023/03/28 09:15:56;;;;;;;0.40;0.40;;;8.40;99.90;;;;;;4933961;29;20052;-52
2023/03/28 09:18:47;;;;;;;1.00;1.00;;;8.30;99.90;;;;;;4921199;29;20031;-54
2023/03/28 09:21:30;;;;;;;0.30;0.30;;;8.30;99.90;;;;;;4896741;29;20094;-53
2023/03/28 09:24:16;;;;;;;0.73;0.57;;;8.70;99.90;;;;;;4936600;29;20043;-51
2023/03/28 09:26:56;;;;;;;0.90;0.65;;;;;;;;;;4936573;29;20047;-53
2023/03/28 09:29:24;;;;;;;0.63;0.63;;;;;;;;;;4936823;29;20082;-54
2023/03/28 09:31:55;;;;;;;0.50;0.50;;;;;;;;;;4936667;29;20047;-55
2023/03/28 09:34:26;;;;;;;0.30;0.30;;;;;;;;;;4936798;29;20043;-54
2023/03/28 09:36:53;;;;;;;0.57;0.57;;;;;;;;;;4936496;29;20411;-56
2023/03/28 09:39:41;;;;;;;0.50;0.50;;;9.50;97.70;;;;;;4936615;29;20048;-53
2023/03/28 09:42:19;;;;;;;0.30;0.30;;;;;;;;;;4933942;29;20048;-58
2023/03/28 09:45:04;;;;;;;0.70;0.70;;;9.10;98.90;;;;;;4936621;29;20035;-55
2023/03/28 09:47:31;;;;;;;0.32;0.32;;;9.00;97.50;;;;;;4936603;29;20028;-55
2023/03/28 09:49:57;;;;;;;0.90;0.70;;;9.00;98.40;;;;;;4987092;28;20525;-51
2023/03/28 09:52:23;;;;;;;0.43;0.43;;;8.60;97.40;;;;;;5000811;28;20040;-53
2023/03/28 09:54:49;;;;;;;0.30;0.30;;;8.80;96.40;;;;;;5013086;28;20112;-54
2023/03/28 09:57:15;;;;;;;0.60;0.60;;;8.50;96.20;;;;;;5015751;28;20033;-54
2023/03/28 09:59:41;;;;;;;0.40;0.40;;;8.40;97.00;;;;;;5030456;28;20088;-53
2023/03/28 10:02:28;;;;;;;0.30;0.30;;;8.50;96.90;;;;;;5015701;28;20030;-53
2023/03/28 10:04:55;;;;;;;0.45;0.45;;;;;;;;;;5015611;28;20037;-54
2023/03/28 10:07:29;;;;;;;0.28;0.28;;;;;;;;;;5015431;28;20022;-55
2023/03/28 10:09:57;;;;;;;0.32;0.32;;;;;;;;;;5015490;28;20049;-52
2023/03/28 10:12:36;;;;;;;0.20;0.20;;;;;;;;;;5015830;28;20420;-54
2023/03/28 10:15:03;;;;;;;0.30;0.30;;;8.90;99.90;;;;;;5015887;28;20038;-53
2023/03/28 10:17:33;;;;;;;0.40;0.40;;;8.40;96.10;;;;;;5017425;28;20100;-54
2023/03/28 10:20:13;;;;;;;0.38;0.38;;;9.10;97.40;;;;;;5016541;28;20394;-53
2023/03/28 10:22:40;;;;;;;0.30;0.30;;;;;;;;;;5016130;28;20136;-54
2023/03/28 10:25:07;;;;;;;0.30;0.30;;;;;;;;;;5016354;28;20466;-51
2023/03/28 10:27:35;;;;;;;0.20;0.20;;;;;;;;;;5016053;28;20124;-54
2023/03/28 10:30:20;;;;;;;0.20;0.20;;;9.90;93.30;;;;;;5015917;28;20159;-55
2023/03/28 10:33:20;;;;;;;1.02;1.02;;;9.40;94.80;;;;;;5033827;28;20132;-54
2023/03/28 10:35:53;;;;;;;0.22;0.22;;;8.60;95.90;;;;;;5033490;28;20037;-54
2023/03/28 10:38:21;;;;;;;0.20;0.20;;;8.30;95.70;;;;;;5032984;28;20087;-53
2023/03/28 10:40:58;;;;;;;0.30;0.30;;;9.00;96.80;;;;;;5016284;28;20083;-53
2023/03/28 10:43:31;;;;;;;0.43;0.43;;;9.30;96.10;;;;;;5032926;28;20057;-59
2023/03/28 10:46:00;;;;;;;0.40;0.40;;;9.30;94.70;;;;;;5032898;28;20036;-55
2023/03/28 10:48:29;;;;;;;0.30;0.30;;;9.20;93.80;;;;;;5032560;28;20551;-54
2023/03/28 10:50:59;;;;;;;0.20;0.20;;;9.60;94.40;;;;;;5032579;28;20471;-52
2023/03/28 10:53:28;;;;;;;0.40;0.40;;;9.90;95.10;;;;;;5032568;28;20514;-53
2023/03/28 10:56:37;;;;;;;0.22;0.22;;;9.70;93.10;;;;;;5032451;28;20055;-52
2023/03/28 10:59:08;;;;;;;0.38;0.38;;;9.60;94.00;;;;;;5032338;28;20497;-55
2023/03/28 11:01:55;;;;;;;0.30;0.30;;;9.50;95.10;;;;;;5015588;28;20045;-53
2023/03/28 11:04:51;;;;;;;0.30;0.30;;;10.10;93.70;;;;;;5017415;28;20129;-53
2023/03/28 11:07:31;;;;;;;0.35;0.35;;;10.30;93.50;;;;;;5012516;28;20073;-53
2023/03/28 11:10:10;;;;;;;0.30;0.30;;;10.10;93.40;;;;;;5012505;28;20050;-54
2023/03/28 11:12:59;;;;;;;0.73;0.73;;;9.80;97.80;;;;;;5012474;28;20034;-54
2023/03/28 11:15:45;;;;;;;0.30;0.30;;;9.40;99.90;;;;;;5045108;28;20516;-52
2023/03/28 11:18:20;;;;;;;1.55;0.43;;;8.90;93.00;;;;;;5012306;28;20037;-54
2023/03/28 11:21:19;;;;;;;0.30;0.30;;;9.50;93.10;;;;;;5011711;28;20526;-52
2023/03/28 11:24:17;;;;;;;0.40;0.40;;;9.90;93.30;;;;;;5012060;28;20430;-52
2023/03/28 11:27:11;;;;;;;0.22;0.22;;;9.70;92.80;;;;;;5012159;28;20042;-52
2023/03/28 11:29:40;;;;;;;1.08;1.08;;;9.30;92.70;;;;;;5012056;28;20069;-55
2023/03/28 11:32:23;;;;;;;0.75;0.75;;;9.50;94.20;;;;;;5012329;28;20441;-54
2023/03/28 11:35:10;;;;;;;0.50;0.50;;;9.20;92.80;;;;;;5014561;28;20034;-55
2023/03/28 11:37:51;;;;;;;1.02;1.02;;;9.10;92.60;;;;;;5028657;28;20052;-53
2023/03/28 11:40:48;;;;;;;0.40;0.40;;;9.10;93.60;;;;;;5014006;28;20497;-52
2023/03/28 11:43:20;;;;;;;0.75;0.75;;;9.40;93.70;;;;;;5031545;28;20046;-54
2023/03/28 11:45:50;;;;;;;3.13;0.95;;;9.30;92.10;;;;;;5031717;28;20038;-53
2023/03/28 11:48:25;;;;;;;0.30;0.30;;;9.20;92.70;;;;;;5031493;28;20535;-52
2023/03/28 11:51:06;;;;;;;0.20;0.20;;;9.10;92.40;;;;;;5031469;28;20043;-54
2023/03/28 11:54:02;;;;;;;0.40;0.40;;;9.10;92.20;;;;;;5031419;28;20389;-53
2023/03/28 11:56:42;;;;;;;0.40;0.40;;;9.20;92.50;;;;;;4972878;28;20086;-54
2023/03/28 11:59:23;;;;;;;1.48;1.38;;;9.60;93.00;;;;;;4972574;28;20051;-54
2023/03/28 12:01:56;;;;;;;0.30;0.30;;;9.70;92.10;;;;;;4972336;28;20474;-58
2023/03/28 12:04:27;;;;;;;0.20;0.20;;;10.10;92.30;;;;;;4969288;28;20125;-54
2023/03/28 12:07:21;;;;;;;2.05;1.95;;;9.90;91.80;;;;;;4970861;28;20046;-53
2023/03/28 12:10:07;;;;;;;0.40;0.40;;;9.40;92.30;;;;;;4955074;28;20145;-55
2023/03/28 12:13:20;;;;;;;0.25;0.25;;;9.40;93.10;;;;;;4968121;28;20102;-50
2023/03/28 12:16:11;;;;;;;0.20;0.20;;;10.00;94.70;;;;;;4959959;28;20032;-51
2023/03/28 12:18:48;;;;;;;0.40;0.40;;;;;;;;;;4962510;28;20372;-50
2023/03/28 12:21:26;;;;;;;0.20;0.20;;;10.80;99.90;;;;;;4945633;28;20394;-49
2023/03/28 12:23:58;;;;;;;0.40;0.40;;;;;;;;;;4941902;29;20063;-52
2023/03/28 12:26:25;;;;;;;;;;;;;;;;;;4940837;29;20077;-52
2023/03/28 12:28:53;;;;;;;0.30;0.30;;;11.90;99.90;;;;;;4942081;28;19919;-50
2023/03/28 12:31:25;;;;;;;0.30;0.30;;;;;;;;;;4947596;28;20039;-50
2023/03/28 12:34:15;;;;;;;0.50;0.50;;;11.90;89.20;;;;;;4974685;28;20528;-53
2023/03/28 12:36:48;;;;;;;3.13;2.67;;;12.00;88.00;;;;;;4971304;28;20078;-51
2023/03/28 12:39:43;;;;;;;1.08;1.08;;;11.40;86.50;;;;;;4967703;28;20040;-51
2023/03/28 12:42:13;;;;;;;0.65;0.47;;;11.70;89.60;;;;;;4947172;28;20210;-49
2023/03/28 12:44:45;;;;;;;1.23;1.13;;;11.90;90.30;;;;;;4939651;29;20467;-49
2023/03/28 12:47:32;;;;;;;1.17;0.52;;;;;;;;;;4969527;28;20426;-49
2023/03/28 12:50:00;;;;;;;0.25;0.25;;;;;;;;;;4978651;28;20050;-49
2023/03/28 12:52:30;;;;;;;0.93;0.70;;;;;;;;;;4965460;28;20046;-49
2023/03/28 12:55:27;;;;;;;0.30;0.30;;;11.40;99.90;;;;;;4997908;28;20093;-49
2023/03/28 12:58:20;;;;;;;0.13;0.13;;;11.30;86.40;;;;;;4989236;28;20043;-49
2023/03/28 13:01:03;;;;;;;0.55;0.55;;;10.60;87.30;;;;;;4996327;28;20121;-50
2023/03/28 13:03:50;;;;;;;0.40;0.40;;;10.90;89.80;;;;;;4996647;28;20164;-49
2023/03/28 13:06:35;;;;;;;0.10;0.10;;;10.90;88.60;;;;;;4988850;28;20765;-49
2023/03/28 13:09:21;;;;;;;0.20;0.20;;;10.80;90.10;;;;;;4992533;28;20526;-50
2023/03/28 13:11:52;;;;;;;0.30;0.30;;;10.40;88.40;;;;;;4993363;28;20617;-50
2023/03/28 13:14:25;;;;;;;0.20;0.20;;;;;;;;;;4996049;28;20042;-49
2023/03/28 13:16:59;;;;;;;0.30;0.30;;;9.30;99.90;;;;;;5013217;28;20072;-49
2023/03/28 13:19:43;;;;;;;0.20;0.20;;;8.60;92.00;;;;;;5015513;28;20026;-49
2023/03/28 13:22:24;;;;;;;0.20;0.20;;;8.10;91.40;;;;;;5014292;28;20026;-49
2023/03/28 13:24:50;;;;;;;0.20;0.20;;;8.10;91.00;;;;;;5015426;28;20604;-49
2023/03/28 13:27:31;;;;;;;0.30;0.30;;;8.70;91.30;;;;;;5015367;28;20106;-50
2023/03/28 13:30:04;;;;;;;0.50;0.50;;;9.00;90.10;;;;;;5006971;28;20034;-49
2023/03/28 13:32:36;;;;;;;0.40;0.40;;;8.80;96.60;;;;;;4999478;28;20045;-51
2023/03/28 13:35:04;;;;;;;;;;;8.60;98.10;;;;;;5006451;28;20026;-51
2023/03/28 13:38:32;;;;;;;0.40;0.40;;;8.80;99.00;;;;;;5033803;28;20329;-51
2023/03/28 13:41:01;;;;;;;0.50;0.50;;;9.20;98.60;;;;;;4954888;29;20039;-52
2023/03/28 13:43:32;;;;;;;0.22;0.22;;;9.90;99.70;;;;;;4951508;28;20404;-51
2023/03/28 13:46:10;;;;;;;0.10;0.10;;;10.20;98.10;;;;;;4956207;28;20049;-53
2023/03/28 13:48:49;;;;;;;0.20;0.20;;;10.00;96.90;;;;;;4949201;28;20209;-51
2023/03/28 13:51:20;;;;;;;0.20;0.20;;;9.40;95.80;;;;;;4952058;28;20050;-51